createdAt,value
2018-03-11T00:00:04.124Z,94.30
2018-03-11T00:02:32.382Z,94.10
2018-03-11T00:05:00.627Z,94.10
2018-03-11T00:07:28.145Z,94.00
2018-03-11T00:09:55.633Z,94.10
2018-03-11T00:12:23.175Z,94.10
2018-03-11T00:14:50.655Z,94.10
2018-03-11T00:17:18.291Z,94.00
2018-03-11T00:19:45.767Z,94.00
2018-03-11T00:22:13.261Z,94.00
2018-03-11T00:24:40.744Z,94.10
2018-03-11T00:27:08.999Z,94.10
2018-03-11T00:29:37.283Z,94.10
2018-03-11T00:32:05.531Z,94.10
2018-03-11T00:34:33.072Z,94.00
2018-03-11T00:37:00.568Z,94.10
2018-03-11T00:39:28.048Z,94.10
2018-03-11T00:41:56.314Z,93.90
2018-03-11T00:44:24.555Z,93.90
2018-03-11T00:46:52.044Z,93.90
2018-03-11T00:49:19.503Z,93.70
2018-03-11T00:51:47.747Z,93.80
2018-03-11T00:54:15.252Z,93.80
2018-03-11T00:56:43.552Z,93.80
2018-03-11T00:59:11.022Z,93.80
2018-03-11T01:01:38.498Z,93.70
2018-03-11T01:04:05.995Z,93.80
2018-03-11T01:06:34.251Z,93.90
2018-03-11T01:09:01.751Z,93.90
2018-03-11T01:11:29.235Z,93.90
2018-03-11T01:13:56.723Z,93.70
2018-03-11T01:16:24.199Z,93.80
2018-03-11T01:18:51.712Z,93.80
2018-03-11T01:21:19.172Z,93.70
2018-03-11T01:23:46.638Z,93.70
2018-03-11T01:26:14.123Z,93.80
2018-03-11T01:28:41.606Z,93.60
2018-03-11T01:31:09.871Z,93.70
2018-03-11T01:33:38.114Z,93.70
2018-03-11T01:36:05.625Z,93.70
2018-03-11T01:38:33.842Z,93.60
2018-03-11T01:41:01.326Z,93.60
2018-03-11T01:43:28.791Z,93.60
2018-03-11T01:45:56.287Z,93.60
2018-03-11T01:48:23.759Z,93.60
2018-03-11T01:50:51.267Z,93.70
2018-03-11T01:53:18.750Z,93.70
2018-03-11T01:55:46.995Z,93.80
2018-03-11T01:58:14.453Z,93.80
2018-03-11T02:00:41.963Z,93.70
2018-03-11T02:03:09.470Z,93.60
2018-03-11T02:05:36.970Z,93.50
2018-03-11T02:08:04.450Z,93.60
2018-03-11T02:10:31.959Z,93.50
2018-03-11T02:12:59.411Z,93.60
2018-03-11T02:15:26.903Z,93.70
2018-03-11T02:17:54.387Z,93.60
2018-03-11T02:20:21.872Z,93.60
2018-03-11T02:22:49.368Z,93.70
2018-03-11T02:25:17.639Z,93.60
2018-03-11T02:27:45.890Z,93.70
2018-03-11T02:30:13.394Z,93.70
2018-03-11T02:32:41.648Z,93.60
2018-03-11T02:35:09.894Z,93.60
2018-03-11T02:37:37.351Z,93.60
2018-03-11T02:40:04.839Z,93.40
2018-03-11T02:42:33.086Z,93.50
2018-03-11T02:45:00.604Z,93.50
2018-03-11T02:47:28.069Z,93.60
2018-03-11T02:49:55.562Z,93.60
2018-03-11T02:52:23.090Z,93.60
2018-03-11T02:54:50.625Z,93.60
2018-03-11T02:57:18.073Z,93.60
2018-03-11T02:59:46.302Z,93.40
2018-03-11T03:02:13.794Z,93.30
2018-03-11T03:04:41.268Z,93.50
2018-03-11T03:07:09.503Z,93.40
2018-03-11T03:09:36.966Z,93.40
2018-03-11T03:12:04.491Z,93.40
2018-03-11T03:14:31.960Z,93.50
2018-03-11T03:16:59.450Z,93.40
2018-03-11T03:19:26.919Z,93.50
2018-03-11T03:21:54.387Z,93.50
2018-03-11T03:24:22.655Z,93.40
2018-03-11T03:26:50.112Z,93.30
2018-03-11T03:29:19.125Z,93.50
2018-03-11T03:31:47.360Z,93.50
2018-03-11T03:34:14.876Z,93.40
2018-03-11T03:36:42.335Z,93.30
2018-03-11T03:39:09.836Z,93.30
2018-03-11T03:41:37.322Z,93.30
2018-03-11T03:44:04.768Z,93.30
2018-03-11T03:46:32.258Z,93.40
2018-03-11T03:49:00.482Z,93.30
2018-03-11T03:51:28.010Z,93.30
2018-03-11T03:53:55.482Z,93.40
2018-03-11T03:56:22.974Z,93.40
2018-03-11T03:58:50.445Z,93.50
2018-03-11T04:01:17.905Z,93.50
2018-03-11T04:03:45.433Z,93.50
2018-03-11T04:06:12.922Z,93.60
2018-03-11T04:08:40.386Z,93.50
2018-03-11T04:11:08.645Z,93.50
2018-03-11T04:13:36.110Z,93.50
2018-03-11T04:16:03.622Z,93.40
2018-03-11T04:18:31.095Z,93.40
2018-03-11T04:20:58.546Z,93.40
2018-03-11T04:23:26.038Z,93.40
2018-03-11T04:25:53.514Z,93.50
2018-03-11T04:28:21.010Z,93.50
2018-03-11T04:30:48.478Z,93.50
2018-03-11T04:33:15.958Z,93.50
2018-03-11T04:35:43.438Z,93.50
2018-03-11T04:38:10.951Z,93.50
2018-03-11T04:40:38.411Z,93.50
2018-03-11T04:43:05.923Z,93.50
2018-03-11T04:45:33.391Z,93.50
2018-03-11T04:48:01.611Z,93.50
2018-03-11T04:50:29.099Z,93.50
2018-03-11T04:52:56.574Z,93.50
2018-03-11T04:55:24.058Z,93.50
2018-03-11T04:57:51.558Z,93.40
2018-03-11T05:00:19.795Z,93.50
2018-03-11T05:02:47.259Z,93.50
2018-03-11T05:05:14.760Z,93.50
2018-03-11T05:07:42.239Z,93.50
2018-03-11T05:10:09.763Z,93.50
2018-03-11T05:12:37.211Z,93.50
2018-03-11T05:15:04.710Z,93.40
2018-03-11T05:17:32.199Z,93.50
2018-03-11T05:19:59.657Z,93.50
2018-03-11T05:22:27.147Z,93.50
2018-03-11T05:24:54.670Z,93.50
2018-03-11T05:27:22.898Z,93.60
2018-03-11T05:29:50.382Z,93.60
2018-03-11T05:32:17.859Z,93.60
2018-03-11T05:34:46.172Z,93.60
2018-03-11T05:37:13.667Z,93.60
2018-03-11T05:39:41.168Z,93.50
2018-03-11T05:42:09.418Z,93.60
2018-03-11T05:44:37.664Z,93.50
2018-03-11T05:47:05.130Z,93.50
2018-03-11T05:49:32.621Z,93.50
2018-03-11T05:52:00.857Z,93.50
2018-03-11T05:54:28.363Z,93.50
2018-03-11T05:56:56.603Z,93.50
2018-03-11T05:59:24.095Z,93.50
2018-03-11T06:01:52.323Z,93.40
2018-03-11T06:04:20.590Z,93.40
2018-03-11T06:06:48.091Z,93.40
2018-03-11T06:09:15.579Z,93.40
2018-03-11T06:11:43.063Z,93.40
2018-03-11T06:14:10.523Z,93.50
2018-03-11T06:16:38.019Z,93.50
2018-03-11T06:19:05.491Z,93.50
2018-03-11T06:21:33.752Z,93.50
2018-03-11T06:24:01.251Z,93.50
2018-03-11T06:26:28.761Z,93.50
2018-03-11T06:28:56.221Z,93.50
2018-03-11T06:31:23.727Z,93.50
2018-03-11T06:33:51.211Z,93.50
2018-03-11T06:36:18.670Z,93.50
2018-03-11T06:38:46.180Z,93.50
2018-03-11T06:41:14.414Z,93.50
2018-03-11T06:43:41.940Z,93.50
2018-03-11T06:46:09.415Z,93.60
2018-03-11T06:48:36.903Z,93.50
2018-03-11T06:51:04.357Z,93.40
2018-03-11T06:53:31.878Z,93.40
2018-03-11T06:55:59.361Z,93.40
2018-03-11T06:58:26.830Z,93.50
2018-03-11T07:00:54.353Z,93.50
2018-03-11T07:03:21.836Z,93.50
2018-03-11T07:05:49.330Z,93.50
2018-03-11T07:08:16.936Z,93.50
2018-03-11T07:10:44.438Z,93.50
2018-03-11T07:13:11.925Z,93.60
2018-03-11T07:15:40.192Z,93.60
2018-03-11T07:18:07.671Z,93.60
2018-03-11T07:20:35.937Z,93.70
2018-03-11T07:23:04.205Z,93.70
2018-03-11T07:25:32.481Z,93.70
2018-03-11T07:27:59.979Z,93.70
2018-03-11T07:30:27.455Z,93.60
2018-03-11T07:32:54.966Z,93.60
2018-03-11T07:35:23.219Z,93.70
2018-03-11T07:37:51.486Z,93.70
2018-03-11T07:40:19.715Z,93.70
2018-03-11T07:42:47.217Z,93.70
2018-03-11T07:45:14.698Z,93.70
2018-03-11T07:47:42.172Z,93.70
2018-03-11T07:50:10.441Z,93.80
2018-03-11T07:52:38.677Z,93.80
2018-03-11T07:55:06.202Z,93.80
2018-03-11T07:57:33.664Z,93.80
2018-03-11T08:00:01.174Z,94.00
2018-03-11T08:02:28.659Z,94.20
2018-03-11T08:04:56.939Z,93.20
2018-03-11T08:07:25.185Z,93.60
2018-03-11T08:09:52.696Z,93.60
2018-03-11T08:12:20.194Z,93.80
2018-03-11T08:14:47.706Z,93.90
2018-03-11T08:17:15.191Z,93.90
2018-03-11T08:19:42.699Z,94.10
2018-03-11T08:22:10.203Z,94.20
2018-03-11T08:24:37.673Z,94.10
2018-03-11T08:27:05.166Z,94.20
2018-03-11T08:29:33.421Z,87.40
2018-03-11T08:32:00.963Z,87.40
2018-03-11T08:34:28.488Z,86.60
2018-03-11T08:36:56.771Z,88.80
2018-03-11T08:39:24.249Z,88.80
2018-03-11T08:41:51.814Z,94.10
2018-03-11T08:44:19.328Z,94.20
2018-03-11T08:46:47.572Z,94.30
2018-03-11T08:49:15.062Z,94.30
2018-03-11T08:51:43.331Z,89.50
2018-03-11T08:54:10.827Z,89.50
2018-03-11T08:56:38.303Z,89.00
2018-03-11T08:59:05.811Z,89.40
2018-03-11T09:01:33.298Z,89.30
2018-03-11T09:04:00.802Z,89.40
2018-03-11T09:06:28.294Z,89.50
2018-03-11T09:08:58.110Z,89.00
2018-03-11T09:11:26.401Z,89.10
2018-03-11T09:13:54.671Z,89.00
2018-03-11T09:16:22.912Z,89.40
2018-03-11T09:18:50.423Z,89.40
2018-03-11T09:21:17.920Z,89.50
2018-03-11T09:23:45.439Z,89.50
2018-03-11T09:26:12.961Z,89.50
2018-03-11T09:28:40.440Z,89.20
2018-03-11T09:31:08.727Z,89.70
2018-03-11T09:33:43.211Z,89.70
2018-03-11T09:36:10.706Z,89.20
2018-03-11T09:38:38.194Z,88.40
2018-03-11T09:41:05.720Z,88.80
2018-03-11T09:43:33.196Z,86.70
2018-03-11T09:46:00.717Z,88.80
2018-03-11T09:48:28.202Z,89.00
2018-03-11T09:50:55.668Z,86.90
2018-03-11T09:53:23.180Z,84.30
2018-03-11T09:55:50.681Z,84.80
2018-03-11T09:58:18.198Z,84.20
2018-03-11T10:00:45.671Z,84.10
2018-03-11T10:03:13.178Z,83.80
2018-03-11T10:05:40.638Z,84.50
2018-03-11T10:08:08.146Z,85.00
2018-03-11T10:10:36.301Z,85.70
2018-03-11T10:13:03.785Z,83.50
2018-03-11T10:15:32.050Z,79.40
2018-03-11T10:17:59.597Z,79.40
2018-03-11T10:20:27.112Z,80.70
2018-03-11T10:22:54.580Z,81.70
2018-03-11T10:25:22.103Z,81.20
2018-03-11T10:27:50.338Z,77.40
2018-03-11T10:30:17.838Z,77.50
2018-03-11T10:32:46.125Z,77.50
2018-03-11T10:35:14.372Z,76.60
2018-03-11T10:37:41.859Z,76.60
2018-03-11T10:40:10.101Z,78.90
2018-03-11T10:42:38.365Z,79.30
2018-03-11T10:45:05.951Z,79.20
2018-03-11T10:47:34.217Z,80.60
2018-03-11T10:50:01.697Z,80.60
2018-03-11T10:52:29.951Z,79.60
2018-03-11T10:54:57.470Z,79.70
2018-03-11T10:57:24.939Z,79.50
2018-03-11T10:59:52.452Z,80.90
2018-03-11T11:02:26.359Z,78.00
2018-03-11T11:05:00.706Z,76.70
2018-03-11T11:07:28.230Z,76.70
2018-03-11T11:09:56.505Z,74.50
2018-03-11T11:12:24.774Z,75.30
2018-03-11T11:14:52.273Z,75.30
2018-03-11T11:17:19.771Z,75.60
2018-03-11T11:19:47.288Z,78.20
2018-03-11T11:22:14.751Z,75.10
2018-03-11T11:24:42.256Z,77.80
2018-03-11T11:27:09.736Z,75.20
2018-03-11T11:29:37.260Z,65.80
2018-03-11T11:32:04.763Z,66.10
2018-03-11T11:34:32.243Z,69.20
2018-03-11T11:36:59.773Z,70.80
2018-03-11T11:39:27.263Z,68.00
2018-03-11T11:41:54.771Z,72.00
2018-03-11T11:44:22.270Z,67.80
2018-03-11T11:46:50.539Z,65.40
2018-03-11T11:49:18.788Z,65.20
2018-03-11T11:51:46.311Z,65.10
2018-03-11T11:54:13.831Z,52.10
2018-03-11T11:56:42.087Z,44.80
2018-03-11T11:59:09.674Z,44.60
2018-03-11T12:01:37.152Z,47.40
2018-03-11T12:04:04.678Z,44.60
2018-03-11T12:06:32.908Z,45.20
2018-03-11T12:09:00.404Z,45.00
2018-03-11T12:11:28.668Z,42.00
2018-03-11T12:13:56.181Z,41.80
2018-03-11T12:16:23.680Z,43.60
2018-03-11T12:18:51.210Z,41.80
2018-03-11T12:21:18.701Z,41.80
2018-03-11T12:23:46.198Z,40.90
2018-03-11T12:26:14.482Z,37.20
2018-03-11T12:28:41.986Z,37.10
2018-03-11T12:31:09.507Z,36.10
2018-03-11T12:33:36.987Z,33.20
2018-03-11T12:36:04.502Z,32.70
2018-03-11T12:38:32.742Z,30.50
2018-03-11T12:41:00.305Z,30.10
2018-03-11T12:43:27.724Z,29.80
2018-03-11T12:45:55.219Z,28.80
2018-03-11T12:48:22.698Z,28.60
2018-03-11T12:50:50.222Z,28.00
2018-03-11T12:53:17.732Z,27.40
2018-03-11T12:55:45.992Z,27.40
2018-03-11T12:58:15.020Z,27.60
2018-03-11T13:00:43.254Z,27.20
2018-03-11T13:03:10.783Z,27.20
2018-03-11T13:05:38.246Z,27.80
2018-03-11T13:08:05.766Z,28.10
2018-03-11T13:10:33.992Z,27.80
2018-03-11T13:13:01.488Z,27.90
2018-03-11T13:15:29.772Z,25.90
2018-03-11T13:17:58.059Z,25.60
2018-03-11T13:20:38.195Z,25.70
2018-03-11T13:23:06.446Z,25.90
2018-03-11T13:25:33.953Z,25.90
2018-03-11T13:28:13.360Z,25.80
2018-03-11T13:30:40.892Z,25.70
2018-03-11T13:33:20.097Z,26.60
2018-03-11T13:35:47.606Z,27.10
2018-03-11T13:38:28.819Z,27.30
2018-03-11T13:40:57.096Z,27.40
2018-03-11T13:43:25.376Z,27.70
2018-03-11T13:46:05.523Z,26.20
2018-03-11T13:48:33.782Z,26.90
2018-03-11T13:51:01.256Z,26.80
2018-03-11T13:53:41.520Z,27.00
2018-03-11T13:56:08.982Z,27.00
2018-03-11T13:58:44.324Z,27.40
2018-03-11T14:01:12.616Z,26.90
2018-03-11T14:03:40.130Z,26.70
2018-03-11T14:06:07.631Z,26.90
2018-03-11T14:08:35.896Z,27.10
2018-03-11T14:11:04.123Z,27.10
2018-03-11T14:13:31.647Z,27.10
2018-03-11T14:15:59.122Z,27.20
2018-03-11T14:18:26.621Z,26.80
2018-03-11T14:20:54.855Z,27.20
2018-03-11T14:23:23.241Z,27.10
2018-03-11T14:25:50.776Z,27.40
2018-03-11T14:28:18.967Z,27.30
2018-03-11T14:30:46.451Z,27.10
2018-03-11T14:33:13.936Z,27.50
2018-03-11T14:35:41.461Z,28.10
2018-03-11T14:38:08.941Z,29.90
2018-03-11T14:40:37.378Z,34.10
2018-03-11T14:43:04.875Z,39.40
2018-03-11T14:45:32.370Z,41.60
2018-03-11T14:48:00.651Z,60.50
2018-03-11T14:50:28.884Z,61.00
2018-03-11T14:52:56.397Z,61.00
2018-03-11T14:55:23.901Z,65.30
2018-03-11T14:57:51.418Z,66.00
2018-03-11T15:00:18.909Z,71.80
2018-03-11T15:02:46.415Z,68.90
2018-03-11T15:05:14.655Z,69.50
2018-03-11T15:07:42.132Z,69.50
2018-03-11T15:10:11.124Z,68.70
2018-03-11T15:12:39.374Z,68.90
2018-03-11T15:15:06.919Z,68.90
2018-03-11T15:17:34.399Z,69.10
2018-03-11T15:20:01.871Z,69.20
2018-03-11T15:22:29.364Z,68.50
2018-03-11T15:24:57.629Z,68.90
2018-03-11T15:27:25.914Z,68.10
2018-03-11T15:29:53.399Z,68.00
2018-03-11T15:32:20.913Z,66.80
2018-03-11T15:34:49.158Z,71.70
2018-03-11T15:37:16.679Z,71.70
2018-03-11T15:39:44.270Z,70.80
2018-03-11T15:42:11.793Z,70.20
2018-03-11T15:44:40.122Z,71.20
2018-03-11T15:47:07.643Z,71.00
2018-03-11T15:49:35.198Z,71.80
2018-03-11T15:52:04.171Z,82.40
2018-03-11T15:54:32.458Z,82.50
2018-03-11T15:57:00.734Z,81.00
2018-03-11T15:59:29.005Z,73.30
2018-03-11T16:01:57.258Z,75.40
2018-03-11T16:04:24.778Z,75.40
2018-03-11T16:06:52.260Z,74.80
2018-03-11T16:09:19.753Z,85.90
2018-03-11T16:11:48.011Z,82.80
2018-03-11T16:14:15.563Z,82.70
2018-03-11T16:16:43.039Z,76.40
2018-03-11T16:19:11.338Z,80.20
2018-03-11T16:21:39.592Z,80.70
2018-03-11T16:24:07.056Z,80.70
2018-03-11T16:26:35.336Z,82.60
2018-03-11T16:29:03.612Z,81.40
2018-03-11T16:31:31.907Z,82.40
2018-03-11T16:33:59.414Z,82.40
2018-03-11T16:36:26.897Z,82.40
2018-03-11T16:38:54.467Z,83.00
2018-03-11T16:41:22.754Z,84.50
2018-03-11T16:43:51.038Z,84.80
2018-03-11T16:46:19.311Z,84.80
2018-03-11T16:48:46.824Z,84.80
2018-03-11T16:51:14.323Z,85.20
2018-03-11T16:53:41.851Z,85.60
2018-03-11T16:56:09.330Z,85.70
2018-03-11T16:58:36.856Z,86.20
2018-03-11T17:01:04.356Z,86.70
2018-03-11T17:03:32.633Z,86.50
2018-03-11T17:06:00.874Z,86.20
2018-03-11T17:08:28.418Z,86.20
2018-03-11T17:10:55.913Z,86.70
2018-03-11T17:13:23.418Z,87.10
2018-03-11T17:15:50.915Z,87.10
2018-03-11T17:18:18.435Z,87.30
2018-03-11T17:20:45.956Z,87.50
2018-03-11T17:23:14.207Z,86.70
2018-03-11T17:25:41.710Z,86.70
2018-03-11T17:28:10.004Z,87.80
2018-03-11T17:30:38.270Z,87.90
2018-03-11T17:33:05.777Z,87.90
2018-03-11T17:35:33.273Z,88.00
2018-03-11T17:38:01.568Z,87.90
2018-03-11T17:40:29.806Z,87.60
2018-03-11T17:42:57.913Z,87.60
2018-03-11T17:45:25.395Z,87.20
2018-03-11T17:47:52.898Z,86.50
2018-03-11T17:50:20.384Z,87.10
2018-03-11T17:52:47.891Z,87.10
2018-03-11T17:55:15.371Z,87.50
2018-03-11T17:57:42.894Z,87.20
2018-03-11T18:00:10.384Z,87.10
2018-03-11T18:02:37.932Z,87.10
2018-03-11T18:05:05.403Z,87.40
2018-03-11T18:07:32.888Z,87.30
2018-03-11T18:10:01.175Z,87.00
2018-03-11T18:12:30.164Z,87.00
2018-03-11T18:14:58.442Z,87.00
2018-03-11T18:17:26.703Z,87.20
2018-03-11T18:19:54.210Z,87.30
2018-03-11T18:22:21.718Z,87.50
2018-03-11T18:24:49.257Z,87.60
2018-03-11T18:27:16.752Z,87.30
2018-03-11T18:29:45.021Z,87.10
2018-03-11T18:32:13.290Z,86.90
2018-03-11T18:34:40.786Z,86.90
2018-03-11T18:37:08.323Z,86.60
2018-03-11T18:39:36.593Z,85.80
2018-03-11T18:42:04.845Z,85.70
2018-03-11T18:44:32.352Z,85.70
2018-03-11T18:46:59.883Z,85.50
2018-03-11T18:49:27.363Z,85.90
2018-03-11T18:51:55.676Z,85.60
2018-03-11T18:54:23.163Z,85.60
2018-03-11T18:56:50.662Z,85.10
2018-03-11T18:59:18.168Z,84.60
2018-03-11T19:01:46.155Z,84.50
2018-03-11T19:04:14.417Z,84.40
2018-03-11T19:06:41.923Z,84.40
2018-03-11T19:09:10.307Z,85.50
2018-03-11T19:11:37.795Z,85.50
2018-03-11T19:14:05.321Z,85.90
2018-03-11T19:16:33.580Z,86.20
2018-03-11T19:19:01.083Z,86.20
2018-03-11T19:21:28.612Z,86.20
2018-03-11T19:23:56.912Z,86.40
2018-03-11T19:26:24.407Z,86.40
2018-03-11T19:28:51.900Z,86.10
2018-03-11T19:31:20.176Z,86.10
2018-03-11T19:33:48.411Z,86.20
2018-03-11T19:36:15.911Z,86.20
2018-03-11T19:38:44.160Z,85.60
2018-03-11T19:41:11.689Z,85.60
2018-03-11T19:43:39.194Z,85.50
2018-03-11T19:46:06.683Z,85.70
2018-03-11T19:48:34.226Z,86.50
2018-03-11T19:51:02.471Z,87.40
2018-03-11T19:53:29.989Z,87.40
2018-03-11T19:55:57.497Z,87.70
2018-03-11T19:58:25.016Z,88.10
2018-03-11T20:00:52.505Z,88.60
2018-03-11T20:03:19.995Z,88.80
2018-03-11T20:05:47.531Z,88.80
2018-03-11T20:08:15.012Z,89.10
2018-03-11T20:10:43.291Z,89.00
2018-03-11T20:13:11.577Z,88.90
2018-03-11T20:15:39.869Z,88.90
2018-03-11T20:18:07.361Z,88.90
2018-03-11T20:20:34.887Z,88.90
2018-03-11T20:23:02.392Z,89.00
2018-03-11T20:25:29.911Z,88.80
2018-03-11T20:27:57.387Z,88.70
2018-03-11T20:30:24.895Z,88.80
2018-03-11T20:32:53.190Z,88.90
2018-03-11T20:35:20.695Z,89.00
2018-03-11T20:37:48.209Z,88.90
2018-03-11T20:40:16.458Z,88.80
2018-03-11T20:42:43.939Z,88.80
2018-03-11T20:45:12.194Z,89.00
2018-03-11T20:47:39.680Z,89.00
2018-03-11T20:50:07.199Z,89.00
2018-03-11T20:52:34.693Z,89.00
2018-03-11T20:55:02.991Z,89.00
2018-03-11T20:57:30.474Z,89.00
2018-03-11T20:59:57.993Z,89.00
2018-03-11T21:02:25.502Z,89.30
2018-03-11T21:04:52.986Z,89.10
2018-03-11T21:07:21.309Z,89.40
2018-03-11T21:09:48.855Z,89.40
2018-03-11T21:12:16.381Z,89.10
2018-03-11T21:14:44.706Z,89.10
2018-03-11T21:17:12.223Z,89.10
2018-03-11T21:19:40.471Z,88.70
2018-03-11T21:22:07.982Z,88.70
2018-03-11T21:24:35.454Z,88.60
2018-03-11T21:27:02.959Z,88.60
2018-03-11T21:29:30.464Z,88.70
2018-03-11T21:31:57.963Z,88.60
2018-03-11T21:34:26.402Z,88.80
2018-03-11T21:36:53.893Z,88.70
2018-03-11T21:39:21.394Z,88.70
2018-03-11T21:41:49.658Z,89.10
2018-03-11T21:44:17.152Z,89.10
2018-03-11T21:46:44.611Z,89.00
2018-03-11T21:49:12.161Z,88.70
2018-03-11T21:51:40.412Z,88.70
2018-03-11T21:54:07.945Z,88.70
2018-03-11T21:56:35.435Z,88.60
2018-03-11T21:59:02.919Z,88.50
2018-03-11T22:01:30.427Z,88.80
2018-03-11T22:03:57.952Z,88.90
2018-03-11T22:06:26.222Z,89.00
2018-03-11T22:08:53.695Z,89.00
2018-03-11T22:11:21.202Z,88.70
2018-03-11T22:13:48.686Z,88.80
2018-03-11T22:16:16.218Z,89.00
2018-03-11T22:18:43.700Z,89.00
2018-03-11T22:21:11.981Z,89.30
2018-03-11T22:23:39.456Z,89.20
2018-03-11T22:26:06.967Z,89.20
2018-03-11T22:28:34.457Z,89.30
2018-03-11T22:31:01.963Z,89.20
2018-03-11T22:33:29.500Z,89.20
2018-03-11T22:35:56.997Z,89.30
2018-03-11T22:38:24.553Z,89.40
2018-03-11T22:40:52.053Z,89.40
2018-03-11T22:43:20.307Z,89.50
2018-03-11T22:45:48.565Z,89.50
2018-03-11T22:48:16.117Z,89.50
2018-03-11T22:50:43.601Z,89.40
2018-03-11T22:53:11.885Z,89.40
2018-03-11T22:55:40.169Z,89.20
2018-03-11T22:58:08.446Z,89.30
2018-03-11T23:00:36.720Z,89.30
2018-03-11T23:03:05.014Z,89.30
2018-03-11T23:05:32.513Z,89.30
2018-03-11T23:08:00.010Z,89.40
2018-03-11T23:10:28.288Z,89.40
2018-03-11T23:12:56.554Z,89.30
2018-03-11T23:15:24.073Z,89.20
2018-03-11T23:17:51.586Z,89.40
2018-03-11T23:20:19.842Z,89.40
2018-03-11T23:22:47.352Z,89.40
2018-03-11T23:25:14.862Z,89.40
2018-03-11T23:27:42.358Z,89.50
2018-03-11T23:30:09.886Z,89.60
2018-03-11T23:32:37.398Z,89.70
2018-03-11T23:35:04.918Z,89.80
2018-03-11T23:37:33.167Z,89.80
2018-03-11T23:40:00.676Z,89.80
2018-03-11T23:42:29.111Z,89.90
2018-03-11T23:44:56.587Z,89.90
2018-03-11T23:47:24.103Z,89.90
2018-03-11T23:49:51.580Z,89.90
2018-03-11T23:52:19.082Z,89.90
2018-03-11T23:54:46.584Z,89.90
2018-03-11T23:57:14.114Z,89.90
2018-03-11T23:59:41.624Z,90.00
